createdAt,value
2018-12-12T00:01:22.911Z,1.30
2018-12-12T00:03:51.959Z,1.30
2018-12-12T00:06:20.258Z,1.22
2018-12-12T00:08:48.355Z,1.35
2018-12-12T00:11:16.539Z,1.12
2018-12-12T00:13:44.682Z,1.35
2018-12-12T00:16:12.922Z,1.17
2018-12-12T00:18:41.235Z,1.42
2018-12-12T00:21:09.401Z,1.50
2018-12-12T00:23:39.551Z,1.40
2018-12-12T00:26:07.905Z,1.35
2018-12-12T00:28:36.178Z,1.70
2018-12-12T00:31:04.449Z,1.30
2018-12-12T00:33:32.690Z,1.67
2018-12-12T00:36:00.840Z,1.98
2018-12-12T00:38:29.256Z,1.60
2018-12-12T00:40:58.689Z,3.35
2018-12-12T00:43:26.900Z,1.87
2018-12-12T00:45:55.164Z,1.52
2018-12-12T00:48:23.580Z,1.50
2018-12-12T00:50:51.775Z,1.02
2018-12-12T00:53:20.002Z,1.80
2018-12-12T00:55:48.320Z,2.22
2018-12-12T00:58:18.264Z,1.32
2018-12-12T01:00:46.532Z,1.30
2018-12-12T01:03:14.738Z,1.85
2018-12-12T01:05:42.973Z,1.62
2018-12-12T01:08:11.229Z,1.82
2018-12-12T01:10:39.434Z,1.55
2018-12-12T01:13:07.616Z,1.62
2018-12-12T01:15:35.848Z,1.80
2018-12-12T01:18:04.032Z,1.90
2018-12-12T01:20:32.365Z,1.27
2018-12-12T01:23:00.538Z,1.45
2018-12-12T01:25:28.950Z,1.67
2018-12-12T01:27:57.327Z,1.90
2018-12-12T01:30:25.504Z,1.65
2018-12-12T01:32:53.712Z,1.27
2018-12-12T01:35:21.952Z,2.02
2018-12-12T01:37:50.995Z,1.57
2018-12-12T01:40:19.810Z,1.82
2018-12-12T01:42:48.053Z,1.72
2018-12-12T01:45:16.288Z,1.50
2018-12-12T01:47:44.463Z,1.40
2018-12-12T01:50:14.272Z,1.45
2018-12-12T01:52:43.095Z,1.70
2018-12-12T01:55:11.350Z,1.75
2018-12-12T01:57:39.502Z,1.15
2018-12-12T02:00:07.708Z,1.67
2018-12-12T02:02:35.923Z,2.17
2018-12-12T02:05:04.500Z,1.40
2018-12-12T02:07:34.853Z,1.30
2018-12-12T02:10:03.124Z,2.10
2018-12-12T02:12:31.441Z,1.65
2018-12-12T02:14:59.704Z,1.80
2018-12-12T02:17:29.945Z,2.02
2018-12-12T02:19:58.077Z,1.87
2018-12-12T02:22:26.483Z,1.67
2018-12-12T02:24:55.071Z,1.70
2018-12-12T02:27:23.891Z,1.90
2018-12-12T02:29:52.051Z,1.90
2018-12-12T02:32:20.240Z,2.15
2018-12-12T02:34:48.441Z,2.02
2018-12-12T02:37:16.618Z,1.60
2018-12-12T02:39:44.732Z,1.70
2018-12-12T02:42:12.943Z,2.05
2018-12-12T02:44:41.195Z,1.72
2018-12-12T02:47:09.311Z,1.90
2018-12-12T02:49:37.650Z,2.12
2018-12-12T02:52:05.965Z,1.70
2018-12-12T02:54:34.145Z,1.60
2018-12-12T02:57:02.375Z,1.40
2018-12-12T02:59:30.541Z,1.60
2018-12-12T03:01:58.743Z,1.95
2018-12-12T03:04:26.905Z,1.60
2018-12-12T03:06:55.061Z,2.00
2018-12-12T03:09:23.293Z,1.80
2018-12-12T03:11:51.410Z,2.12
2018-12-12T03:14:19.656Z,2.08
2018-12-12T03:16:47.793Z,2.20
2018-12-12T03:19:16.437Z,2.20
2018-12-12T03:21:44.700Z,1.70
2018-12-12T03:24:13.029Z,1.87
2018-12-12T03:26:41.172Z,2.87
2018-12-12T03:29:09.350Z,2.17
2018-12-12T03:31:37.490Z,2.17
2018-12-12T03:34:05.827Z,2.40
2018-12-12T03:36:33.988Z,2.05
2018-12-12T03:39:02.171Z,2.45
2018-12-12T03:41:30.427Z,1.67
2018-12-12T03:43:58.722Z,2.00
2018-12-12T03:46:26.920Z,2.50
2018-12-12T03:48:55.232Z,2.47
2018-12-12T03:51:24.221Z,2.00
2018-12-12T03:53:52.428Z,2.08
2018-12-12T03:56:20.673Z,2.40
2018-12-12T03:58:49.768Z,2.55
2018-12-12T04:01:18.232Z,2.40
2018-12-12T04:03:46.432Z,2.90
2018-12-12T04:06:15.434Z,2.42
2018-12-12T04:08:43.656Z,2.22
2018-12-12T04:11:11.793Z,2.50
2018-12-12T04:13:41.184Z,3.02
2018-12-12T04:16:10.008Z,2.52
2018-12-12T04:18:38.333Z,2.45
2018-12-12T04:21:06.610Z,2.95
2018-12-12T04:23:34.861Z,2.20
2018-12-12T04:26:03.078Z,2.25
2018-12-12T04:28:31.645Z,3.00
2018-12-12T04:30:59.859Z,3.60
2018-12-12T04:33:27.976Z,3.70
2018-12-12T04:35:56.231Z,3.22
2018-12-12T04:38:24.511Z,3.72
2018-12-12T04:40:52.621Z,3.30
2018-12-12T04:43:20.889Z,3.30
2018-12-12T04:45:49.114Z,5.08
2018-12-12T04:48:17.347Z,4.30
2018-12-12T04:50:45.828Z,4.78
2018-12-12T04:53:14.065Z,5.10
2018-12-12T04:55:42.277Z,4.37
2018-12-12T04:58:10.489Z,5.55
2018-12-12T05:00:38.727Z,6.50
2018-12-12T05:03:07.245Z,6.08
2018-12-12T05:05:35.481Z,5.40
2018-12-12T05:08:03.747Z,6.30
2018-12-12T05:10:31.932Z,5.55
2018-12-12T05:13:00.182Z,6.12
2018-12-12T05:15:28.325Z,6.95
2018-12-12T05:17:56.641Z,6.40
2018-12-12T05:20:24.926Z,7.08
2018-12-12T05:22:54.037Z,6.25
2018-12-12T05:25:22.352Z,8.13
2018-12-12T05:27:50.575Z,7.67
2018-12-12T05:30:18.894Z,6.85
2018-12-12T05:32:47.563Z,7.40
2018-12-12T05:35:15.874Z,8.05
2018-12-12T05:37:50.652Z,8.08
2018-12-12T05:40:14.517Z,7.17
2018-12-12T05:42:42.850Z,7.85
2018-12-12T05:45:11.082Z,7.40
2018-12-12T05:47:39.486Z,7.80
2018-12-12T05:50:07.842Z,7.70
2018-12-12T05:52:36.152Z,7.12
2018-12-12T05:55:05.414Z,9.48
2018-12-12T05:57:33.588Z,8.58
2018-12-12T06:00:01.882Z,7.70
2018-12-12T06:02:30.046Z,6.95
2018-12-12T06:04:58.326Z,7.85
2018-12-12T06:07:26.516Z,8.58
2018-12-12T06:09:54.844Z,8.33
2018-12-12T06:12:22.984Z,8.20
2018-12-12T06:14:51.176Z,8.73
2018-12-12T06:17:19.502Z,7.10
2018-12-12T06:19:47.845Z,8.75
2018-12-12T06:22:16.357Z,8.80
2018-12-12T06:24:45.117Z,7.97
2018-12-12T06:27:13.260Z,7.83
2018-12-12T06:29:42.791Z,8.13
2018-12-12T06:32:11.029Z,8.63
2018-12-12T06:34:41.106Z,8.58
2018-12-12T06:37:09.737Z,8.15
2018-12-12T06:39:37.927Z,9.50
2018-12-12T06:42:06.182Z,9.58
2018-12-12T06:44:34.417Z,9.20
2018-12-12T06:47:02.600Z,7.35
2018-12-12T06:49:30.875Z,9.05
2018-12-12T06:51:59.201Z,7.92
2018-12-12T06:54:27.399Z,8.58
2018-12-12T06:56:56.891Z,9.18
2018-12-12T06:59:25.150Z,7.95
2018-12-12T07:01:53.485Z,7.00
2018-12-12T07:04:21.749Z,6.55
2018-12-12T07:06:50.051Z,7.75
2018-12-12T07:09:18.258Z,5.90
2018-12-12T07:11:46.491Z,6.35
2018-12-12T07:14:14.687Z,7.20
2018-12-12T07:16:42.947Z,5.62
2018-12-12T07:19:11.229Z,6.45
2018-12-12T07:21:39.459Z,6.28
2018-12-12T07:24:07.705Z,5.00
2018-12-12T07:26:35.983Z,5.08
2018-12-12T07:29:04.265Z,5.58
2018-12-12T07:31:32.497Z,5.40
2018-12-12T07:34:01.393Z,5.62
2018-12-12T07:36:29.843Z,4.55
2018-12-12T07:38:58.135Z,5.60
2018-12-12T07:41:26.631Z,4.75
2018-12-12T07:43:54.952Z,5.42
2018-12-12T07:46:23.355Z,6.00
2018-12-12T07:48:51.569Z,4.80
2018-12-12T07:51:19.753Z,5.30
2018-12-12T07:53:48.444Z,5.85
2018-12-12T07:56:17.637Z,5.90
2018-12-12T07:58:45.938Z,5.12
2018-12-12T08:01:14.314Z,5.20
2018-12-12T08:03:42.474Z,5.55
2018-12-12T08:06:10.709Z,5.40
2018-12-12T08:08:38.903Z,4.70
2018-12-12T08:11:07.191Z,5.70
2018-12-12T08:13:35.356Z,5.62
2018-12-12T08:16:04.089Z,5.35
2018-12-12T08:18:32.337Z,4.65
2018-12-12T08:21:00.737Z,4.87
2018-12-12T08:23:29.651Z,4.70
2018-12-12T08:25:58.003Z,5.42
2018-12-12T08:28:26.244Z,3.75
2018-12-12T08:30:59.102Z,5.22
2018-12-12T08:33:27.367Z,5.37
2018-12-12T08:35:55.583Z,5.30
2018-12-12T08:38:23.884Z,6.10
2018-12-12T08:40:52.308Z,5.20
2018-12-12T08:43:20.475Z,4.63
2018-12-12T08:45:48.745Z,6.45
2018-12-12T08:48:17.006Z,5.58
2018-12-12T08:50:45.272Z,4.87
2018-12-12T08:53:13.414Z,5.90
2018-12-12T08:55:41.720Z,4.42
2018-12-12T08:58:09.958Z,6.27
2018-12-12T09:00:38.308Z,5.55
2018-12-12T09:03:07.179Z,4.87
2018-12-12T09:05:35.593Z,5.13
2018-12-12T09:08:03.791Z,5.62
2018-12-12T09:10:31.995Z,5.15
2018-12-12T09:13:00.284Z,4.80
2018-12-12T09:15:28.543Z,6.33
2018-12-12T09:17:56.722Z,5.90
2018-12-12T09:20:24.998Z,5.65
2018-12-12T09:22:53.195Z,5.20
2018-12-12T09:25:21.390Z,5.83
2018-12-12T09:27:49.616Z,5.10
2018-12-12T09:30:17.973Z,5.67
2018-12-12T09:32:46.238Z,11.05
2018-12-12T09:35:14.420Z,5.10
2018-12-12T09:37:43.188Z,5.90
2018-12-12T09:40:11.601Z,5.33
2018-12-12T09:42:39.908Z,5.50
2018-12-12T09:45:08.171Z,5.30
2018-12-12T09:47:36.595Z,5.07
2018-12-12T09:50:05.694Z,4.90
2018-12-12T09:55:13.436Z,5.70
2018-12-12T09:57:41.578Z,4.80
2018-12-12T10:00:09.885Z,3.83
2018-12-12T10:02:38.058Z,4.53
2018-12-12T10:05:06.470Z,4.33
2018-12-12T10:07:34.796Z,4.43
2018-12-12T10:10:03.068Z,4.70
2018-12-12T10:12:31.248Z,4.80
2018-12-12T10:14:59.488Z,3.53
2018-12-12T10:17:27.730Z,4.50
2018-12-12T10:19:56.001Z,9.43
2018-12-12T10:22:24.369Z,4.13
2018-12-12T10:24:52.578Z,4.20
2018-12-12T10:27:20.932Z,3.30
2018-12-12T10:29:49.097Z,4.17
2018-12-12T10:32:17.271Z,3.60
2018-12-12T10:34:45.418Z,3.20
2018-12-12T10:37:13.617Z,3.30
2018-12-12T10:39:41.921Z,3.30
2018-12-12T10:42:10.129Z,3.10
2018-12-12T10:44:38.341Z,3.40
2018-12-12T10:47:06.512Z,3.67
2018-12-12T10:49:34.653Z,2.30
2018-12-12T10:52:03.387Z,3.00
2018-12-12T10:54:31.632Z,2.60
2018-12-12T10:56:59.777Z,2.70
2018-12-12T10:59:27.915Z,2.87
2018-12-12T11:02:01.403Z,3.57
2018-12-12T11:04:29.806Z,3.40
2018-12-12T11:06:58.243Z,3.20
2018-12-12T11:09:26.529Z,3.50
2018-12-12T11:11:54.769Z,3.30
2018-12-12T11:14:22.980Z,3.17
2018-12-12T11:16:55.542Z,5.63
2018-12-12T11:19:23.926Z,6.63
2018-12-12T11:21:52.168Z,4.53
2018-12-12T11:24:23.379Z,4.40
2018-12-12T11:26:51.902Z,5.80
2018-12-12T11:29:20.171Z,5.17
2018-12-12T11:31:48.668Z,5.47
2018-12-12T11:34:17.145Z,5.20
2018-12-12T11:36:45.612Z,5.43
2018-12-12T11:39:14.267Z,5.40
2018-12-12T11:41:42.585Z,5.20
2018-12-12T11:44:11.875Z,5.40
2018-12-12T11:46:40.385Z,5.70
2018-12-12T11:49:08.833Z,5.50
2018-12-12T11:51:37.330Z,5.90
2018-12-12T11:54:05.595Z,6.23
2018-12-12T11:56:33.923Z,5.43
2018-12-12T11:59:02.239Z,6.43
2018-12-12T12:01:30.489Z,7.03
2018-12-12T12:03:58.787Z,7.50
2018-12-12T12:06:27.043Z,6.50
2018-12-12T12:08:57.560Z,6.90
2018-12-12T12:11:26.041Z,6.57
2018-12-12T12:13:54.379Z,6.97
2018-12-12T12:16:23.127Z,6.90
2018-12-12T12:18:51.895Z,6.63
2018-12-12T12:21:20.209Z,6.77
2018-12-12T12:23:48.832Z,6.77
2018-12-12T12:26:18.691Z,6.77
2018-12-12T12:28:47.159Z,6.87
2018-12-12T12:31:15.439Z,6.70
2018-12-12T12:33:43.829Z,6.80
2018-12-12T12:36:11.967Z,6.80
2018-12-12T12:38:41.706Z,6.90
2018-12-12T12:41:11.213Z,6.37
2018-12-12T12:43:39.503Z,6.23
2018-12-12T12:46:07.677Z,5.87
2018-12-12T12:48:35.857Z,6.60
2018-12-12T12:51:04.170Z,8.33
2018-12-12T12:53:32.409Z,7.23
2018-12-12T12:56:01.019Z,6.87
2018-12-12T12:58:29.458Z,9.60
2018-12-12T13:00:57.690Z,5.30
2018-12-12T13:03:26.202Z,5.67
2018-12-12T13:05:54.485Z,5.80
2018-12-12T13:08:22.752Z,6.03
2018-12-12T13:10:51.032Z,6.20
2018-12-12T13:13:19.817Z,5.43
2018-12-12T13:15:48.217Z,6.53
2018-12-12T13:18:16.660Z,6.30
2018-12-12T13:20:44.906Z,6.10
2018-12-12T13:23:13.274Z,7.10
2018-12-12T13:25:41.587Z,6.37
2018-12-12T13:28:09.765Z,6.10
2018-12-12T13:30:38.267Z,6.47
2018-12-12T13:33:06.645Z,6.00
2018-12-12T13:35:34.940Z,5.73
2018-12-12T13:38:03.164Z,5.13
2018-12-12T13:40:31.303Z,8.23
2018-12-12T13:42:59.805Z,7.50
2018-12-12T13:45:27.951Z,7.47
2018-12-12T13:47:56.193Z,8.37
2018-12-12T13:50:24.427Z,7.47
2018-12-12T13:52:52.785Z,8.40
2018-12-12T13:55:21.011Z,7.33
2018-12-12T13:57:49.271Z,7.90
2018-12-12T14:00:17.512Z,6.97
2018-12-12T14:02:45.807Z,6.97
2018-12-12T14:05:14.044Z,6.40
2018-12-12T14:07:42.295Z,5.33
2018-12-12T14:10:10.507Z,6.30
2018-12-12T14:12:38.822Z,13.30
2018-12-12T14:15:07.070Z,5.83
2018-12-12T14:17:35.580Z,7.50
2018-12-12T14:20:04.143Z,5.37
2018-12-12T14:22:32.338Z,6.70
2018-12-12T14:25:00.543Z,6.07
2018-12-12T14:27:28.736Z,6.97
2018-12-12T14:29:57.042Z,5.80
2018-12-12T14:32:25.317Z,5.57
2018-12-12T14:34:53.551Z,6.15
2018-12-12T14:37:21.791Z,6.80
2018-12-12T14:39:51.284Z,7.00
2018-12-12T14:42:19.619Z,7.45
2018-12-12T14:44:47.771Z,6.85
2018-12-12T14:47:16.115Z,7.00
2018-12-12T14:49:44.316Z,8.03
2018-12-12T14:52:12.522Z,7.10
2018-12-12T14:54:40.665Z,8.10
2018-12-12T14:57:08.993Z,8.03
2018-12-12T14:59:37.144Z,7.67
2018-12-12T15:02:05.413Z,8.77
2018-12-12T15:04:36.050Z,6.58
2018-12-12T15:07:04.102Z,9.43
2018-12-12T15:09:32.405Z,9.08
2018-12-12T15:12:00.735Z,9.15
2018-12-12T15:14:28.920Z,7.30
2018-12-12T15:16:57.120Z,7.90
2018-12-12T15:19:25.403Z,8.15
2018-12-12T15:21:53.682Z,7.40
2018-12-12T15:24:21.808Z,7.78
2018-12-12T15:26:49.956Z,8.00
2018-12-12T15:29:18.101Z,7.28
2018-12-12T15:31:46.232Z,9.38
2018-12-12T15:34:14.583Z,8.10
2018-12-12T15:36:43.029Z,8.80
2018-12-12T15:39:11.245Z,8.10
2018-12-12T15:41:39.413Z,8.20
2018-12-12T15:44:07.550Z,8.50
2018-12-12T15:46:35.674Z,9.48
2018-12-12T15:49:03.920Z,7.35
2018-12-12T15:51:32.118Z,7.85
2018-12-12T15:54:00.324Z,8.53
2018-12-12T15:56:28.672Z,8.60
2018-12-12T15:58:56.865Z,7.78
2018-12-12T16:01:25.087Z,8.73
2018-12-12T16:03:53.288Z,9.55
2018-12-12T16:06:21.494Z,8.80
2018-12-12T16:08:49.990Z,7.67
2018-12-12T16:11:18.266Z,7.30
2018-12-12T16:13:46.498Z,7.55
2018-12-12T16:16:14.806Z,7.05
2018-12-12T16:18:42.956Z,7.65
2018-12-12T16:21:11.151Z,8.33
2018-12-12T16:23:39.340Z,8.30
2018-12-12T16:26:07.509Z,6.60
2018-12-12T16:28:35.745Z,8.18
2018-12-12T16:31:04.248Z,8.28
2018-12-12T16:33:32.481Z,8.65
2018-12-12T16:36:00.781Z,13.60
2018-12-12T16:38:28.951Z,8.40
2018-12-12T16:40:57.127Z,8.75
2018-12-12T16:43:25.470Z,8.98
2018-12-12T16:45:53.713Z,9.15
2018-12-12T16:48:22.679Z,7.72
2018-12-12T16:50:50.917Z,7.08
2018-12-12T16:53:19.252Z,7.60
2018-12-12T16:55:47.475Z,7.80
2018-12-12T16:58:15.665Z,9.23
2018-12-12T17:00:43.887Z,10.25
2018-12-12T17:03:12.181Z,7.35
2018-12-12T17:05:40.414Z,9.38
2018-12-12T17:08:08.788Z,9.08
2018-12-12T17:10:36.962Z,8.80
2018-12-12T17:13:05.205Z,7.83
2018-12-12T17:15:33.404Z,7.80
2018-12-12T17:18:01.614Z,8.03
2018-12-12T17:20:29.835Z,7.75
2018-12-12T17:22:58.100Z,9.03
2018-12-12T17:25:27.331Z,8.25
2018-12-12T17:27:55.771Z,7.22
2018-12-12T17:30:23.993Z,8.00
2018-12-12T17:32:53.062Z,7.35
2018-12-12T17:35:21.525Z,8.73
2018-12-12T17:37:49.778Z,7.47
2018-12-12T17:40:17.950Z,7.95
2018-12-12T17:42:46.272Z,7.12
2018-12-12T17:45:14.625Z,8.35
2018-12-12T17:47:42.817Z,7.40
2018-12-12T17:50:11.107Z,6.60
2018-12-12T17:52:39.273Z,7.30
2018-12-12T17:55:07.555Z,7.15
2018-12-12T17:57:35.767Z,6.33
2018-12-12T18:00:04.522Z,6.55
2018-12-12T18:02:32.686Z,6.55
2018-12-12T18:05:01.760Z,7.20
2018-12-12T18:07:30.356Z,6.60
2018-12-12T18:09:58.553Z,7.00
2018-12-12T18:12:26.778Z,7.00
2018-12-12T18:14:55.074Z,6.70
2018-12-12T18:17:23.349Z,6.60
2018-12-12T18:19:51.624Z,7.00
2018-12-12T18:22:19.784Z,6.78
2018-12-12T18:24:48.055Z,6.42
2018-12-12T18:27:16.358Z,6.92
2018-12-12T18:29:46.109Z,7.42
2018-12-12T18:32:14.632Z,8.03
2018-12-12T18:34:42.879Z,6.50
2018-12-12T18:37:11.903Z,7.60
2018-12-12T18:39:40.118Z,7.12
2018-12-12T18:42:08.416Z,6.62
2018-12-12T18:44:36.676Z,7.40
2018-12-12T18:47:04.891Z,6.95
2018-12-12T18:49:33.876Z,7.80
2018-12-12T18:52:02.485Z,6.97
2018-12-12T18:54:30.666Z,10.48
2018-12-12T18:56:58.906Z,7.87
2018-12-12T18:59:27.102Z,8.25
2018-12-12T19:01:55.373Z,6.45
2018-12-12T19:04:23.565Z,8.55
2018-12-12T19:06:52.057Z,6.97
2018-12-12T19:09:20.207Z,7.08
2018-12-12T19:11:48.476Z,8.13
2018-12-12T19:14:16.726Z,6.90
2018-12-12T19:16:45.283Z,5.92
2018-12-12T19:19:13.536Z,6.75
2018-12-12T19:21:41.727Z,7.58
2018-12-12T19:24:09.871Z,7.12
2018-12-12T19:26:38.206Z,6.53
2018-12-12T19:29:06.618Z,7.10
2018-12-12T19:31:35.072Z,6.87
2018-12-12T19:34:03.350Z,6.67
2018-12-12T19:36:31.663Z,6.83
2018-12-12T19:38:59.900Z,7.67
2018-12-12T19:41:28.202Z,7.65
2018-12-12T19:43:56.386Z,8.00
2018-12-12T19:46:24.679Z,7.35
2018-12-12T19:48:53.366Z,7.10
2018-12-12T19:51:21.687Z,9.88
2018-12-12T19:53:50.039Z,14.25
2018-12-12T19:56:18.410Z,14.47
2018-12-12T19:58:47.461Z,9.85
2018-12-12T20:01:15.753Z,10.70
2018-12-12T20:03:47.108Z,10.00
2018-12-12T20:06:15.719Z,7.47
2018-12-12T20:08:44.603Z,8.60
2018-12-12T20:11:12.863Z,7.08
2018-12-12T20:13:41.081Z,8.45
2018-12-12T20:16:09.235Z,8.25
2018-12-12T20:18:37.823Z,9.85
2018-12-12T20:21:06.379Z,8.55
2018-12-12T20:23:35.247Z,8.80
2018-12-12T20:26:04.938Z,9.35
2018-12-12T20:28:33.348Z,7.47
2018-12-12T20:31:02.217Z,9.28
2018-12-12T20:33:30.680Z,8.18
2018-12-12T20:35:59.137Z,9.05
2018-12-12T20:38:28.814Z,9.60
2018-12-12T20:40:57.788Z,8.83
2018-12-12T20:43:26.518Z,7.97
2018-12-12T20:45:55.416Z,8.93
2018-12-12T20:48:24.044Z,9.30
2018-12-12T20:50:53.000Z,8.33
2018-12-12T20:53:22.772Z,10.32
2018-12-12T20:55:51.212Z,9.13
2018-12-12T20:58:19.466Z,9.15
2018-12-12T21:00:50.457Z,9.00
2018-12-12T21:03:18.944Z,9.50
2018-12-12T21:05:47.456Z,8.80
2018-12-12T21:08:16.203Z,8.15
2018-12-12T21:10:45.194Z,7.20
2018-12-12T21:13:13.562Z,7.75
2018-12-12T21:15:46.334Z,9.75
2018-12-12T21:18:14.894Z,11.08
2018-12-12T21:20:43.995Z,10.93
2018-12-12T21:23:12.502Z,9.65
2018-12-12T21:25:41.625Z,9.90
2018-12-12T21:28:10.322Z,9.65
2018-12-12T21:30:39.274Z,10.45
2018-12-12T21:33:08.723Z,11.10
2018-12-12T21:35:37.026Z,10.18
2018-12-12T21:38:05.530Z,10.10
2018-12-12T21:40:35.007Z,10.60
2018-12-12T21:43:04.206Z,15.43
2018-12-12T21:45:33.349Z,9.90
2018-12-12T21:48:02.525Z,10.65
2018-12-12T21:50:31.335Z,21.20
2018-12-12T21:53:00.826Z,12.73
2018-12-12T21:55:30.391Z,11.25
2018-12-12T21:57:59.568Z,11.40
2018-12-12T22:00:28.205Z,11.35
2018-12-12T22:02:56.591Z,11.00
2018-12-12T22:05:25.110Z,10.45
2018-12-12T22:07:53.646Z,11.03
2018-12-12T22:10:23.322Z,10.30
2018-12-12T22:12:52.891Z,12.10
2018-12-12T22:15:22.450Z,9.93
2018-12-12T22:17:51.073Z,14.63
2018-12-12T22:20:19.595Z,10.08
2018-12-12T22:22:48.120Z,9.68
2018-12-12T22:25:17.539Z,10.80
2018-12-12T22:27:45.782Z,10.13
2018-12-12T22:30:14.017Z,9.90
2018-12-12T22:32:43.158Z,9.20
2018-12-12T22:35:11.668Z,10.15
2018-12-12T22:37:40.002Z,11.57
2018-12-12T22:40:08.287Z,9.55
2018-12-12T22:42:36.665Z,10.18
2018-12-12T22:45:05.498Z,8.60
2018-12-12T22:47:34.062Z,15.43
2018-12-12T22:50:02.420Z,11.75
2018-12-12T22:52:30.618Z,8.75
2018-12-12T22:54:58.850Z,8.80
2018-12-12T22:57:27.306Z,8.68
2018-12-12T22:59:55.544Z,8.38
2018-12-12T23:02:24.167Z,7.83
2018-12-12T23:04:52.542Z,8.05
2018-12-12T23:07:20.814Z,7.33
2018-12-12T23:09:49.065Z,8.10
2018-12-12T23:12:17.325Z,7.25
2018-12-12T23:14:46.949Z,7.50
2018-12-12T23:17:18.072Z,7.28
2018-12-12T23:19:48.446Z,6.90
2018-12-12T23:22:17.939Z,7.83
2018-12-12T23:24:47.370Z,8.13
2018-12-12T23:27:15.625Z,6.60
2018-12-12T23:29:43.978Z,7.65
2018-12-12T23:32:12.239Z,7.30
2018-12-12T23:34:46.888Z,6.95
2018-12-12T23:37:20.603Z,6.80
2018-12-12T23:42:26.876Z,6.70
2018-12-12T23:44:58.910Z,7.25
2018-12-12T23:47:27.325Z,8.00
2018-12-12T23:49:55.679Z,7.50
2018-12-12T23:52:23.938Z,7.55
2018-12-12T23:54:52.113Z,8.28
2018-12-12T23:57:20.325Z,7.58
2018-12-12T23:59:48.505Z,7.97
